< Typhoon 198409 1984 Season Typhoon 198411 >
Typhoon 198410 (HOLLY)
General InformationTrack Information on Google MapsDetailed Wind InformationList of All Images || Disaster Info.ResourceGoogle EarthGE AnimationAtom FeedGeoJSON
Detalied Best Track (Time Zone = UTC)
Year Month Day Hour Lat. Long. Pressure (hPa) Wind (kt) Class Image Chart
1984 8 15 06 21.0 133.0 996 0 2 Image Chart
1984 8 15 12 21.4 132.9 996 0 2 Image Chart
1984 8 15 18 21.7 132.8 994 0 2 Image Chart
1984 8 16 00 22.0 132.6 990 55 4 Image Chart
1984 8 16 06 22.4 132.1 990 55 4 Image Chart
1984 8 16 12 22.6 131.4 990 55 4 Image Chart
1984 8 16 18 22.8 130.6 985 55 4 Image Chart
1984 8 17 00 22.9 130.0 985 60 4 Image Chart
1984 8 17 06 22.9 129.4 980 60 4 Image Chart
1984 8 17 12 23.0 128.8 975 65 5 Image Chart
1984 8 17 18 23.2 128.3 970 65 5 Image Chart
1984 8 18 00 23.5 127.8 970 65 5 Image Chart
1984 8 18 06 23.9 127.5 970 65 5 Image Chart
1984 8 18 12 25.2 127.0 970 65 5 Image Chart
1984 8 18 18 25.6 126.7 970 65 5 Image Chart
1984 8 19 00 26.0 126.3 965 65 5 Image Chart
1984 8 19 06 26.8 126.3 960 70 5 Image Chart
1984 8 19 12 27.7 126.5 960 70 5 Image Chart
1984 8 19 18 28.6 126.5 965 70 5 Image Chart
1984 8 20 00 29.6 126.3 965 70 5 Image Chart
1984 8 20 06 30.3 126.3 965 70 5 Image Chart
1984 8 20 12 31.2 126.5 965 70 5 Image Chart
1984 8 20 18 32.1 127.0 965 70 5 Image Chart
1984 8 21 00 33.1 127.5 970 65 5 Image Chart
1984 8 21 06 34.1 128.7 970 65 5 Image Chart
1984 8 21 12 35.3 130.5 975 60 4 Image Chart
1984 8 21 18 36.9 132.8 980 50 4 Image Chart
1984 8 22 00 38.7 135.0 980 50 4 Image Chart
1984 8 22 06 40.6 136.1 980 45 3 Image Chart
1984 8 22 12 41.8 137.3 984 0 6 Image Chart
1984 8 22 18 42.0 139.0 984 0 6 Image Chart
1984 8 23 00 42.0 140.0 988 0 6 Image Chart
1984 8 23 06 42.0 141.0 988 0 6 Image Chart
Japan Meteorological Agency Best Track Data | Correction Date : 1992-10-21
< Typhoon 198409 1984 Season Typhoon 198411 >

Help